ASN logo
ASN Wikibase Occurrence # 192240
Last updated: 25 April 2019
This information is added by users of ASN. Neither ASN nor the Flight Safety Foundation are responsible for the completeness or correctness of this information. If you feel this information is incomplete or incorrect, you can submit corrected information.

Date:23-DEC-2016
Time:17:10 LT
Type:Silhouette image of generic A333 model; specific model in this crash may look slightly different
Airbus A330-323
Owner/operator:Delta Air Lines
Registration: N811NW
C/n / msn: 0690
Fatalities:Fatalities: 0 / Occupants: 150
Other fatalities:0
Aircraft damage: None
Location:Appleton International Airport, WI (ATW) -   United States of America
Phase: Taxi
Nature:Domestic Non Scheduled Passenger
Departure airport:Minneapolis–Saint Paul International Airport, MN (MSP)
Destination airport:Appleton International Airport, WI (ATW)
Narrative:
Delta Air Lines Flight 8867, an Airbus A330 aircraft, slid off the taxi way at Appleton International Airport. The aircraft made a safe landing and was taxing to the terminal. The flight was carrying the Minnesota Vikings football team from the Twin Cities to Appleton for a game with the Green Bay Packers. There were no injuries or damage reported but evacuation of the aircraft was delayed due to lack of equipment. Weather at the time indicated it was snowing. (17:10 LT / 00:10Z):

KATW 232359Z 15008KT 1 3/4SM -SN VV003 M01/M01 A2992
KATW 240200Z 15005KT 1SM -SN VV003 00/00 A2989

Sources:

USA TODAY ON LINE NEWS
https://www.flightradar24.com/data/flights/dl8867#bfc3d95


Images:

Photo of N811NW courtesy AirHistory.net


Amsterdam - Schiphol (EHAM / AMS)
19 October 2014; (c) Kjell

Revision history:

Date/timeContributorUpdates
26-Dec-2016 12:22 dfix1 Added
26-Dec-2016 12:26 harro Updated [Aircraft type, Registration, Cn, Operator, Location, Departure airport, Destination airport, Source, Narrative]
27-Dec-2016 09:09 dfix1 Updated [Narrative]

Corrections or additions? ... Edit this accident description